Time;durP1;ratioP1;P1;durP2;ratioP2;P2;SDS_P1;SDS_P2;PMS_P1;PMS_P2;Temp;Humidity;BMP_temperature;BMP_pressure;BME280_temperature;BME280_humidity;BME280_pressure;Samples;Min_cycle;Max_cycle;Signal;HPM_P1;HPM_P2
2023/08/20 00:01:39;;;;;;;16.80;5.70;;;19.90;99.90;;;;;;5113834;28;20163;-75
2023/08/20 00:04:05;;;;;;;17.90;8.10;;;19.90;99.90;;;;;;5114094;28;20199;-74
2023/08/20 00:06:31;;;;;;;11.23;5.70;;;19.80;99.90;;;;;;5114042;28;20246;-76
2023/08/20 00:08:56;;;;;;;17.63;7.45;;;19.80;99.90;;;;;;5114067;28;20261;-75
2023/08/20 00:11:22;;;;;;;11.32;5.68;;;19.80;99.90;;;;;;5113965;28;20285;-75
2023/08/20 00:13:47;;;;;;;13.93;5.40;;;19.70;99.90;;;;;;5114011;28;20182;-75
2023/08/20 00:16:13;;;;;;;13.45;5.28;;;19.80;99.90;;;;;;5113660;28;20637;-74
2023/08/20 00:18:39;;;;;;;15.10;5.47;;;19.80;99.90;;;;;;5113884;28;20219;-74
2023/08/20 00:21:06;;;;;;;14.55;6.13;;;19.80;99.90;;;;;;5113857;28;20167;-74
2023/08/20 00:23:32;;;;;;;13.20;6.63;;;19.80;99.90;;;;;;5113860;28;20283;-74
2023/08/20 00:25:58;;;;;;;19.38;6.80;;;19.90;99.90;;;;;;5112443;28;20666;-74
2023/08/20 00:28:23;;;;;;;15.93;6.35;;;19.90;99.90;;;;;;5113742;28;20167;-74
2023/08/20 00:30:49;;;;;;;16.75;5.25;;;19.90;99.90;;;;;;5113516;28;20171;-74
2023/08/20 00:33:17;;;;;;;15.95;5.50;;;20.00;99.90;;;;;;5113709;28;20190;-74
2023/08/20 00:35:42;;;;;;;16.33;4.78;;;20.00;99.90;;;;;;5113674;28;20163;-74
2023/08/20 00:38:08;;;;;;;11.32;4.50;;;20.00;99.90;;;;;;5113561;28;20209;-74
2023/08/20 00:40:33;;;;;;;13.27;3.75;;;19.90;99.90;;;;;;5113750;28;20164;-75
2023/08/20 00:42:59;;;;;;;14.32;4.05;;;19.80;99.90;;;;;;5113851;28;20681;-74
2023/08/20 00:45:25;;;;;;;15.23;4.40;;;19.70;99.90;;;;;;5113437;28;20171;-74
2023/08/20 00:47:51;;;;;;;12.75;3.95;;;19.80;99.90;;;;;;5113329;28;20175;-74
2023/08/20 00:50:18;;;;;;;12.35;3.80;;;19.90;99.90;;;;;;5113670;28;20560;-74
2023/08/20 00:52:44;;;;;;;14.05;4.13;;;20.00;99.90;;;;;;5113709;28;20191;-74
2023/08/20 00:55:12;;;;;;;15.00;4.35;;;20.10;99.90;;;;;;5113544;28;20227;-74
2023/08/20 00:57:39;;;;;;;10.88;3.85;;;20.30;99.90;;;;;;5113444;28;20166;-74
2023/08/20 01:00:07;;;;;;;12.07;3.72;;;20.40;99.90;;;;;;5113217;28;20175;-74
2023/08/20 01:02:37;;;;;;;15.68;4.05;;;20.30;99.90;;;;;;5114935;28;20160;-74
2023/08/20 01:05:06;;;;;;;14.57;4.32;;;20.20;99.90;;;;;;5117528;28;20245;-74
2023/08/20 01:07:50;;;;;;;14.60;4.22;;;20.20;99.90;;;;;;5117492;28;20622;-74
2023/08/20 01:10:31;;;;;;;12.45;4.32;;;20.20;99.90;;;;;;5117478;28;20182;-74
2023/08/20 01:12:58;;;;;;;14.68;4.40;;;20.30;99.90;;;;;;5117061;28;20191;-74
2023/08/20 01:15:24;;;;;;;12.68;4.45;;;20.40;99.90;;;;;;5117415;28;20172;-75
2023/08/20 01:17:50;;;;;;;12.80;4.35;;;20.50;99.90;;;;;;5116852;28;20239;-74
2023/08/20 01:20:16;;;;;;;14.10;4.25;;;20.60;99.90;;;;;;5117205;28;20233;-75
2023/08/20 01:23:20;;;;;;;12.60;4.47;;;20.80;99.90;;;;;;5117261;27;20163;-74
2023/08/20 01:26:24;;;;;;;10.75;4.22;;;21.00;99.90;;;;;;5115330;28;20274;-75
2023/08/20 01:28:50;;;;;;;14.05;4.20;;;20.80;99.90;;;;;;5093020;27;20189;-73
2023/08/20 01:31:16;;;;;;;10.85;4.00;;;20.70;99.90;;;;;;5115909;28;20183;-73
2023/08/20 01:33:42;;;;;;;11.48;4.15;;;20.80;99.90;;;;;;5116920;28;20167;-74
2023/08/20 01:36:11;;;;;;;11.98;4.00;;;20.90;99.90;;;;;;5116767;28;20195;-73
2023/08/20 01:38:37;;;;;;;13.82;3.95;;;20.90;99.90;;;;;;5117055;28;20254;-74
2023/08/20 01:41:03;;;;;;;12.25;3.90;;;21.10;99.90;;;;;;5116869;28;20199;-74
2023/08/20 01:43:29;;;;;;;12.30;4.13;;;21.20;99.90;;;;;;5116580;28;20235;-75
2023/08/20 01:45:55;;;;;;;12.10;3.78;;;21.00;99.90;;;;;;5116731;28;20194;-74
2023/08/20 01:48:20;;;;;;;13.38;3.90;;;21.00;99.90;;;;;;5116646;28;20533;-74
2023/08/20 01:50:46;;;;;;;12.88;4.30;;;21.00;99.90;;;;;;5116798;28;20171;-74
2023/08/20 01:53:12;;;;;;;11.57;3.65;;;21.00;99.90;;;;;;5116585;28;20167;-74
2023/08/20 01:55:37;;;;;;;14.65;3.67;;;20.90;99.90;;;;;;5116606;28;20179;-74
2023/08/20 01:58:03;;;;;;;12.25;3.78;;;20.80;99.90;;;;;;5116220;28;20198;-74
2023/08/20 02:00:30;;;;;;;7.72;3.90;;;20.70;99.90;;;;;;5116461;28;20575;-74
2023/08/20 02:02:56;;;;;;;10.88;3.55;;;20.60;99.90;;;;;;5115063;28;20171;-74
2023/08/20 02:05:22;;;;;;;7.55;3.45;;;20.50;99.90;;;;;;5116256;28;20171;-74
2023/08/20 02:07:47;;;;;;;8.55;3.13;;;20.50;99.90;;;;;;5116246;28;20667;-74
2023/08/20 02:10:13;;;;;;;11.05;3.45;;;20.40;99.90;;;;;;5116359;28;20177;-74
2023/08/20 02:12:40;;;;;;;10.68;3.40;;;20.20;99.90;;;;;;5115897;27;20641;-74
2023/08/20 02:15:07;;;;;;;11.68;3.58;;;20.20;99.90;;;;;;5115390;28;20250;-74
2023/08/20 02:17:32;;;;;;;7.80;3.30;;;20.10;99.90;;;;;;5115854;28;20670;-74
2023/08/20 02:19:58;;;;;;;7.63;2.95;;;20.10;99.90;;;;;;5116181;28;20220;-74
2023/08/20 02:22:23;;;;;;;9.25;3.42;;;20.10;99.90;;;;;;5116221;28;20220;-74
2023/08/20 02:24:49;;;;;;;10.95;3.47;;;20.00;99.90;;;;;;5115989;28;20560;-75
2023/08/20 02:27:15;;;;;;;11.55;3.45;;;19.70;99.90;;;;;;5116137;28;20175;-74
2023/08/20 02:29:40;;;;;;;10.52;3.25;;;19.70;99.90;;;;;;5115890;28;20646;-74
2023/08/20 02:32:06;;;;;;;13.20;3.40;;;19.60;99.90;;;;;;5114543;28;20198;-74
2023/08/20 02:34:32;;;;;;;9.60;2.80;;;19.70;99.90;;;;;;5115862;28;20276;-73
2023/08/20 02:36:57;;;;;;;11.18;3.05;;;19.70;99.90;;;;;;5115888;27;20664;-74
2023/08/20 02:39:24;;;;;;;9.60;3.17;;;19.70;99.90;;;;;;5115526;28;20167;-73
2023/08/20 02:41:50;;;;;;;10.93;2.88;;;19.60;99.90;;;;;;5115770;27;20646;-73
2023/08/20 02:44:15;;;;;;;10.32;2.97;;;19.60;99.90;;;;;;5115593;28;20199;-74
2023/08/20 02:46:41;;;;;;;8.40;3.47;;;19.60;99.90;;;;;;5115657;28;20290;-74
2023/08/20 02:49:07;;;;;;;7.97;3.38;;;19.60;99.90;;;;;;5115552;27;20191;-73
2023/08/20 02:51:32;;;;;;;11.82;3.35;;;19.60;99.90;;;;;;5115643;28;20216;-74
2023/08/20 02:53:58;;;;;;;11.50;3.80;;;19.60;99.90;;;;;;5115137;28;20186;-73
2023/08/20 02:56:23;;;;;;;11.88;3.33;;;19.60;99.90;;;;;;5115226;28;20171;-73
2023/08/20 02:58:49;;;;;;;8.73;3.25;;;19.50;99.90;;;;;;5115264;28;20171;-73
2023/08/20 03:01:22;;;;;;;8.32;3.13;;;19.50;99.90;;;;;;5114210;28;20630;-74
2023/08/20 03:03:47;;;;;;;8.27;3.30;;;19.40;99.90;;;;;;5115349;28;20260;-74
2023/08/20 03:06:13;;;;;;;10.18;3.42;;;19.40;99.90;;;;;;5115205;28;20167;-74
2023/08/20 03:08:39;;;;;;;7.78;3.08;;;19.40;99.90;;;;;;5114832;28;20645;-74
2023/08/20 03:11:04;;;;;;;6.55;3.13;;;19.30;99.90;;;;;;5115137;28;20365;-74
2023/08/20 03:13:30;;;;;;;7.05;3.20;;;19.20;99.90;;;;;;5114911;28;20262;-74
2023/08/20 03:15:55;;;;;;;13.20;3.75;;;19.20;99.90;;;;;;5114687;28;20206;-72
2023/08/20 03:18:21;;;;;;;6.63;3.28;;;19.20;99.90;;;;;;5114659;28;20215;-72
2023/08/20 03:20:47;;;;;;;10.10;3.47;;;19.20;99.90;;;;;;5114842;28;20164;-73
2023/08/20 03:23:12;;;;;;;9.73;3.78;;;19.20;99.90;;;;;;5114507;28;20235;-73
2023/08/20 03:25:38;;;;;;;8.10;3.40;;;19.10;99.90;;;;;;5113777;28;20530;-73
2023/08/20 03:28:04;;;;;;;7.57;3.50;;;19.10;99.90;;;;;;5114683;28;20209;-73
2023/08/20 03:30:31;;;;;;;11.07;3.55;;;19.10;99.90;;;;;;5114375;28;20698;-74
2023/08/20 03:32:56;;;;;;;10.15;3.60;;;19.10;99.90;;;;;;5114748;28;20187;-73
2023/08/20 03:35:22;;;;;;;10.02;3.42;;;19.10;99.90;;;;;;5114523;28;20527;-73
2023/08/20 03:37:48;;;;;;;11.38;3.75;;;19.10;99.90;;;;;;5114308;28;20198;-73
2023/08/20 03:40:14;;;;;;;10.07;3.75;;;19.10;99.90;;;;;;5114698;28;20246;-73
2023/08/20 03:42:40;;;;;;;13.57;3.70;;;19.10;99.90;;;;;;5114517;28;20171;-73
2023/08/20 03:45:06;;;;;;;15.00;4.45;;;19.00;99.90;;;;;;5114453;28;20210;-73
2023/08/20 03:47:32;;;;;;;14.80;3.80;;;19.00;99.90;;;;;;5114254;28;20274;-73
2023/08/20 03:49:57;;;;;;;14.02;3.67;;;18.80;99.90;;;;;;5114121;28;20292;-73
2023/08/20 03:52:23;;;;;;;13.25;4.15;;;18.80;99.90;;;;;;5113993;28;20164;-73
2023/08/20 03:54:50;;;;;;;10.27;4.03;;;18.90;99.90;;;;;;5114093;28;20616;-73
2023/08/20 03:57:15;;;;;;;16.02;5.00;;;18.90;99.90;;;;;;5114214;28;20171;-73
2023/08/20 03:59:41;;;;;;;13.70;4.97;;;18.80;99.90;;;;;;5113080;28;20582;-73
2023/08/20 04:02:06;;;;;;;14.65;4.93;;;18.80;99.90;;;;;;5112694;28;20167;-74
2023/08/20 04:04:32;;;;;;;11.48;4.85;;;18.80;99.90;;;;;;5113619;28;20207;-73
2023/08/20 04:06:58;;;;;;;11.93;5.10;;;18.70;99.90;;;;;;5113750;28;20182;-73
2023/08/20 04:09:23;;;;;;;16.17;5.22;;;18.70;99.90;;;;;;5112828;28;20174;-73
2023/08/20 04:11:49;;;;;;;13.93;5.30;;;18.70;99.90;;;;;;5113984;28;20636;-73
2023/08/20 04:14:15;;;;;;;14.27;5.25;;;18.80;99.90;;;;;;5113996;28;20179;-73
2023/08/20 04:16:40;;;;;;;13.30;4.97;;;18.80;99.90;;;;;;5113644;28;20164;-73
2023/08/20 04:19:06;;;;;;;12.40;4.90;;;18.70;99.90;;;;;;5113368;28;20362;-73
2023/08/20 04:21:31;;;;;;;18.35;5.18;;;18.80;99.90;;;;;;5113411;28;20541;-73
2023/08/20 04:23:57;;;;;;;14.45;5.22;;;18.80;99.90;;;;;;5113491;28;20199;-72
2023/08/20 04:26:23;;;;;;;10.48;5.10;;;18.80;99.90;;;;;;5113450;28;20234;-73
2023/08/20 04:28:48;;;;;;;11.65;5.38;;;18.80;99.90;;;;;;5113687;28;20169;-73
2023/08/20 04:31:14;;;;;;;16.75;5.90;;;18.90;99.90;;;;;;5113944;28;20249;-73
2023/08/20 04:33:39;;;;;;;14.02;5.90;;;18.90;99.90;;;;;;5113618;28;20163;-73
2023/08/20 04:36:05;;;;;;;12.00;5.65;;;19.00;99.90;;;;;;5112678;28;20179;-73
2023/08/20 04:38:31;;;;;;;10.95;5.53;;;19.10;99.90;;;;;;5113080;28;20210;-73
2023/08/20 04:40:56;;;;;;;13.40;5.53;;;19.20;99.90;;;;;;5113158;28;20631;-74
2023/08/20 04:43:22;;;;;;;11.80;4.85;;;19.10;99.90;;;;;;5113227;28;20206;-74
2023/08/20 04:45:49;;;;;;;14.15;5.55;;;19.20;99.90;;;;;;5113430;28;20167;-74
2023/08/20 04:48:15;;;;;;;16.45;5.50;;;19.30;99.90;;;;;;5113312;28;20292;-74
2023/08/20 04:50:40;;;;;;;12.63;5.43;;;19.20;99.90;;;;;;5113111;28;20662;-73
2023/08/20 04:53:06;;;;;;;20.17;5.78;;;19.20;99.90;;;;;;5113521;28;20179;-74
2023/08/20 04:55:31;;;;;;;20.83;5.72;;;19.20;99.90;;;;;;5113127;28;20171;-73
2023/08/20 04:57:57;;;;;;;16.00;5.75;;;19.40;99.90;;;;;;5113012;28;20175;-74
2023/08/20 05:00:22;;;;;;;12.68;5.35;;;19.50;99.90;;;;;;5113406;28;20163;-73
2023/08/20 05:02:48;;;;;;;13.15;5.38;;;19.40;99.90;;;;;;5113561;28;20171;-74
2023/08/20 05:05:14;;;;;;;12.50;4.93;;;19.60;99.90;;;;;;5112616;28;20255;-74
2023/08/20 05:07:41;;;;;;;12.82;4.75;;;20.10;99.90;;;;;;5113246;28;20171;-73
2023/08/20 05:10:08;;;;;;;12.30;5.15;;;20.40;99.90;;;;;;5113428;28;20160;-74
2023/08/20 05:12:34;;;;;;;11.23;4.30;;;21.10;99.90;;;;;;5112905;28;20198;-74
2023/08/20 05:14:59;;;;;;;8.27;4.28;;;21.80;99.90;;;;;;5113342;28;20210;-73
2023/08/20 05:17:25;;;;;;;9.85;4.63;;;22.50;99.90;;;;;;5113004;28;20211;-73
2023/08/20 05:19:50;;;;;;;10.82;4.85;;;23.60;99.90;;;;;;5112860;28;20258;-74
2023/08/20 05:22:16;;;;;;;8.18;4.40;;;24.70;99.90;;;;;;5113054;28;20160;-75
2023/08/20 05:24:42;;;;;;;9.45;4.43;;;25.20;99.90;;;;;;5113040;28;20233;-75
2023/08/20 05:27:16;;;;;;;9.93;4.40;;;25.70;99.90;;;;;;5111773;28;20533;-74
2023/08/20 05:29:43;;;;;;;12.43;4.68;;;26.50;99.90;;;;;;5113418;28;20175;-75
2023/08/20 05:32:08;;;;;;;10.10;4.70;;;27.70;99.90;;;;;;5113109;28;20172;-75
2023/08/20 05:34:35;;;;;;;13.00;5.70;;;28.50;99.90;;;;;;5112939;28;20250;-75
2023/08/20 05:37:00;;;;;;;9.10;4.63;;;29.30;99.90;;;;;;5112977;28;20181;-75
2023/08/20 05:39:26;;;;;;;12.35;5.10;;;30.20;98.40;;;;;;5112748;28;20175;-75
2023/08/20 05:41:53;;;;;;;15.68;5.40;;;30.90;96.60;;;;;;5111602;28;20219;-75
2023/08/20 05:44:19;;;;;;;9.52;4.13;;;31.40;94.70;;;;;;5112723;28;20210;-75
2023/08/20 05:46:44;;;;;;;11.60;4.40;;;30.60;95.90;;;;;;5112825;28;20188;-75
2023/08/20 05:49:10;;;;;;;6.85;4.10;;;31.20;94.60;;;;;;5113128;28;20163;-74
2023/08/20 05:51:35;;;;;;;7.97;4.03;;;32.20;92.60;;;;;;5116495;28;20175;-74
2023/08/20 05:54:01;;;;;;;9.80;4.57;;;33.00;90.40;;;;;;5116256;28;20258;-74
2023/08/20 05:56:27;;;;;;;10.40;4.30;;;33.50;86.00;;;;;;5116220;28;20163;-73
2023/08/20 05:58:52;;;;;;;11.18;4.13;;;34.10;82.00;;;;;;5116770;28;20645;-74
2023/08/20 06:01:18;;;;;;;7.35;4.35;;;34.80;77.30;;;;;;5116414;28;20212;-74
2023/08/20 06:03:43;;;;;;;10.27;3.90;;;35.40;72.90;;;;;;5115913;28;20600;-74
2023/08/20 06:06:09;;;;;;;9.70;4.18;;;35.50;69.80;;;;;;5115946;28;20185;-74
2023/08/20 06:08:35;;;;;;;8.57;4.90;;;33.90;73.40;;;;;;5115984;28;20171;-74
2023/08/20 06:11:00;;;;;;;11.65;4.38;;;32.80;81.00;;;;;;5115899;28;20221;-75
2023/08/20 06:13:26;;;;;;;9.98;4.25;;;31.20;90.20;;;;;;5116111;28;20171;-75
2023/08/20 06:15:51;;;;;;;12.65;4.75;;;32.00;89.90;;;;;;5115839;28;20612;-74
2023/08/20 06:18:17;;;;;;;8.32;4.82;;;32.90;85.10;;;;;;5115537;28;20229;-73
2023/08/20 06:20:42;;;;;;;7.72;4.20;;;33.50;80.80;;;;;;5115665;28;20177;-74
2023/08/20 06:23:08;;;;;;;10.32;4.35;;;33.50;77.90;;;;;;5115537;28;20192;-74
2023/08/20 06:25:34;;;;;;;9.25;4.15;;;33.20;80.10;;;;;;5115752;28;20178;-74
2023/08/20 06:27:59;;;;;;;8.63;4.07;;;34.50;73.50;;;;;;5116063;28;20182;-75
2023/08/20 06:30:25;;;;;;;8.65;3.60;;;35.40;67.70;;;;;;5115790;28;20198;-73
2023/08/20 06:32:50;;;;;;;6.25;3.10;;;35.00;65.10;;;;;;5115322;28;20296;-74
2023/08/20 06:35:16;;;;;;;5.63;2.95;;;34.70;63.30;;;;;;5115542;28;20171;-73
2023/08/20 06:37:42;;;;;;;4.93;2.50;;;33.90;63.60;;;;;;5115371;28;20182;-74
2023/08/20 06:40:08;;;;;;;6.50;2.90;;;34.30;61.20;;;;;;5115361;28;20168;-73
2023/08/20 06:42:33;;;;;;;6.32;3.05;;;35.40;58.00;;;;;;5115406;28;20177;-75
2023/08/20 06:44:59;;;;;;;6.28;3.15;;;34.90;58.60;;;;;;5115372;28;20210;-74
2023/08/20 06:47:25;;;;;;;4.65;2.70;;;36.60;55.20;;;;;;5114883;28;20187;-75
2023/08/20 06:49:51;;;;;;;4.55;2.60;;;37.50;51.30;;;;;;5115308;28;20182;-77
2023/08/20 06:52:17;;;;;;;6.15;2.65;;;38.30;47.70;;;;;;5115392;28;20163;-75
2023/08/20 06:54:44;;;;;;;9.35;4.05;;;39.10;45.70;;;;;;5115230;28;20175;-76
2023/08/20 06:57:09;;;;;;;7.03;3.13;;;39.80;43.40;;;;;;5114957;28;20154;-77
2023/08/20 06:59:35;;;;;;;4.65;2.70;;;40.00;41.80;;;;;;5115208;28;20644;-76
2023/08/20 07:02:00;;;;;;;5.10;2.70;;;40.10;41.30;;;;;;5115030;28;20171;-76
2023/08/20 07:04:26;;;;;;;4.07;2.40;;;39.60;40.30;;;;;;5114892;28;20206;-77
2023/08/20 07:06:52;;;;;;;4.70;2.50;;;40.00;39.60;;;;;;5114925;28;20170;-77
2023/08/20 07:09:17;;;;;;;5.30;2.65;;;40.00;38.60;;;;;;5113721;28;20166;-76
2023/08/20 07:11:43;;;;;;;4.78;2.08;;;40.70;37.60;;;;;;5114488;28;20512;-76
2023/08/20 07:14:09;;;;;;;5.57;3.13;;;40.50;35.90;;;;;;5113733;28;20174;-76
2023/08/20 07:16:34;;;;;;;2.67;2.40;;;40.90;36.40;;;;;;5114623;28;20170;-77
2023/08/20 07:19:00;;;;;;;4.32;2.42;;;41.00;35.50;;;;;;5113319;28;20681;-76
2023/08/20 07:21:25;;;;;;;4.75;2.80;;;40.70;35.00;;;;;;5114608;28;20173;-77
2023/08/20 07:23:51;;;;;;;4.65;2.50;;;41.10;34.40;;;;;;5114521;28;20198;-77
2023/08/20 07:26:16;;;;;;;3.95;2.72;;;41.10;34.30;;;;;;5114788;28;20167;-77
2023/08/20 07:28:58;;;;;;;6.70;2.60;;;41.60;33.90;;;;;;5114641;28;20626;-77
2023/08/20 07:31:24;;;;;;;4.97;2.78;;;41.60;33.40;;;;;;5114346;28;20170;-77
2023/08/20 07:33:50;;;;;;;5.80;3.75;;;41.90;32.70;;;;;;5114567;27;20166;-77
2023/08/20 07:36:16;;;;;;;4.55;2.72;;;41.60;32.80;;;;;;5114341;28;20641;-77
2023/08/20 07:38:43;;;;;;;5.97;2.70;;;42.20;31.80;;;;;;5114237;27;20178;-77
2023/08/20 07:41:12;;;;;;;6.82;2.47;;;42.50;30.70;;;;;;5114083;28;20227;-77
2023/08/20 07:43:38;;;;;;;3.22;2.38;;;42.20;30.30;;;;;;5114203;28;20199;-77
2023/08/20 07:46:05;;;;;;;3.55;2.00;;;42.60;30.00;;;;;;5113960;28;20163;-77
2023/08/20 07:48:31;;;;;;;3.60;1.80;;;42.60;29.30;;;;;;5114118;28;20187;-78
2023/08/20 07:50:56;;;;;;;5.13;1.98;;;42.50;28.30;;;;;;5113877;28;20201;-78
2023/08/20 07:53:22;;;;;;;5.90;2.17;;;42.50;28.30;;;;;;5114154;28;20158;-77
2023/08/20 07:55:47;;;;;;;2.33;2.00;;;41.90;28.10;;;;;;5113603;28;20622;-77
2023/08/20 07:58:13;;;;;;;2.35;2.00;;;42.10;28.50;;;;;;5114323;28;20170;-77
2023/08/20 08:00:39;;;;;;;2.58;1.80;;;42.20;28.50;;;;;;5113924;28;20186;-76
2023/08/20 08:03:04;;;;;;;4.00;1.80;;;41.40;28.40;;;;;;5113657;28;20582;-76
2023/08/20 08:05:30;;;;;;;2.40;1.65;;;40.90;28.70;;;;;;5113939;28;20638;-77
2023/08/20 08:07:56;;;;;;;2.72;1.50;;;40.60;29.10;;;;;;5114022;28;20175;-77
2023/08/20 08:10:21;;;;;;;1.95;1.63;;;40.60;28.60;;;;;;5114718;28;20649;-77
2023/08/20 08:12:47;;;;;;;6.05;1.85;;;41.50;28.30;;;;;;5113714;28;20706;-77
2023/08/20 08:15:13;;;;;;;2.95;1.42;;;41.80;27.90;;;;;;5113492;28;20216;-77
2023/08/20 08:17:39;;;;;;;2.67;1.63;;;41.70;27.30;;;;;;5113130;28;20309;-77
2023/08/20 08:20:05;;;;;;;2.50;1.50;;;42.00;27.70;;;;;;5112381;28;20223;-77
2023/08/20 08:22:31;;;;;;;2.38;1.50;;;41.90;27.00;;;;;;5113723;28;20714;-77
2023/08/20 08:24:57;;;;;;;1.63;1.33;;;42.00;26.50;;;;;;5113362;28;20301;-78
2023/08/20 08:27:22;;;;;;;1.55;1.27;;;41.60;26.10;;;;;;5113219;28;20213;-77
2023/08/20 08:29:48;;;;;;;1.40;1.30;;;40.30;26.80;;;;;;5113697;28;20171;-77
2023/08/20 08:32:13;;;;;;;2.35;1.20;;;40.70;27.00;;;;;;5113432;28;20634;-77
2023/08/20 08:34:39;;;;;;;1.20;1.10;;;40.20;27.20;;;;;;5113658;28;20181;-76
2023/08/20 08:37:04;;;;;;;1.88;1.20;;;38.20;27.30;;;;;;5113581;28;20171;-76
2023/08/20 08:39:30;;;;;;;2.47;1.30;;;39.10;27.70;;;;;;5113121;28;20197;-77
2023/08/20 08:42:05;;;;;;;1.88;1.30;;;38.80;27.90;;;;;;5112973;28;20171;-77
2023/08/20 08:44:34;;;;;;;2.22;1.38;;;39.10;28.00;;;;;;5112380;28;20206;-78
2023/08/20 08:47:01;;;;;;;2.00;1.30;;;39.00;28.10;;;;;;5113477;28;20265;-76
2023/08/20 08:49:29;;;;;;;1.50;1.20;;;38.60;28.70;;;;;;5113090;28;20198;-77
2023/08/20 08:51:57;;;;;;;1.60;1.33;;;39.10;28.20;;;;;;5113519;28;20163;-78
2023/08/20 08:54:23;;;;;;;2.30;1.20;;;39.30;28.20;;;;;;5113440;28;20626;-78
2023/08/20 08:56:48;;;;;;;1.83;1.25;;;38.40;28.80;;;;;;5112840;28;20177;-78
2023/08/20 08:59:14;;;;;;;1.65;1.45;;;38.70;28.50;;;;;;5113187;28;20171;-80
2023/08/20 09:01:41;;;;;;;2.03;1.30;;;38.80;28.80;;;;;;5113592;28;20173;-78
2023/08/20 09:04:06;;;;;;;1.20;1.10;;;38.90;28.60;;;;;;5113238;28;20670;-78
2023/08/20 09:06:49;;;;;;;1.65;1.00;;;39.50;27.70;;;;;;5113037;28;20188;-79
2023/08/20 09:09:16;;;;;;;1.17;1.08;;;40.00;26.90;;;;;;5113187;28;20171;-78
2023/08/20 09:11:42;;;;;;;1.10;0.98;;;39.00;26.60;;;;;;5112874;28;20167;-78
2023/08/20 09:14:07;;;;;;;1.30;0.80;;;39.40;26.80;;;;;;5112783;28;20182;-78
2023/08/20 09:16:33;;;;;;;1.80;1.10;;;39.60;26.80;;;;;;5113248;28;20166;-78
2023/08/20 09:19:02;;;;;;;1.77;1.17;;;39.60;26.70;;;;;;5112776;28;20644;-77
2023/08/20 09:21:29;;;;;;;0.93;0.82;;;39.10;27.20;;;;;;5112603;28;20169;-77
2023/08/20 09:23:57;;;;;;;1.50;1.40;;;37.90;27.50;;;;;;5114926;28;20221;-77
2023/08/20 09:26:23;;;;;;;3.42;1.00;;;37.40;28.30;;;;;;5116734;28;20228;-77
2023/08/20 09:28:49;;;;;;;2.10;1.00;;;37.50;28.40;;;;;;5115530;28;20183;-78
2023/08/20 09:31:15;;;;;;;1.35;1.00;;;38.40;27.70;;;;;;5116834;28;20163;-78
2023/08/20 09:33:54;;;;;;;3.13;1.10;;;37.90;27.60;;;;;;5116910;28;20186;-78
2023/08/20 09:36:30;;;;;;;1.40;1.10;;;38.50;27.70;;;;;;5116648;28;20205;-77
2023/08/20 09:38:56;;;;;;;1.73;0.90;;;39.00;27.50;;;;;;5116916;28;20170;-77
2023/08/20 09:41:23;;;;;;;1.30;1.00;;;39.00;27.70;;;;;;5115961;28;20570;-77
2023/08/20 09:43:52;;;;;;;1.10;1.00;;;39.60;27.60;;;;;;5116793;28;20224;-77
2023/08/20 09:46:21;;;;;;;1.77;1.10;;;40.00;27.60;;;;;;5116078;27;20166;-77
2023/08/20 09:48:48;;;;;;;1.85;1.20;;;40.40;27.00;;;;;;5116404;28;20194;-78
2023/08/20 09:51:17;;;;;;;2.05;1.00;;;40.50;26.50;;;;;;5116623;28;20167;-78
2023/08/20 09:53:55;;;;;;;3.58;1.25;;;39.70;27.10;;;;;;5116878;28;20163;-76
2023/08/20 09:56:30;;;;;;;1.65;1.55;;;38.80;27.00;;;;;;5115944;28;20170;-76
2023/08/20 09:58:58;;;;;;;3.58;1.30;;;37.60;28.00;;;;;;5116487;28;20174;-77
2023/08/20 10:01:25;;;;;;;1.20;0.95;;;37.80;28.30;;;;;;5116072;28;20167;-77
2023/08/20 10:03:51;;;;;;;2.22;1.42;;;37.60;28.00;;;;;;5115967;28;20194;-77
2023/08/20 10:06:18;;;;;;;2.17;1.20;;;37.40;28.60;;;;;;5116195;27;20178;-77
2023/08/20 10:08:46;;;;;;;1.83;0.98;;;37.60;28.70;;;;;;5116369;28;20182;-77
2023/08/20 10:11:12;;;;;;;3.22;1.10;;;37.80;28.60;;;;;;5115442;28;20167;-76
2023/08/20 10:13:38;;;;;;;1.45;1.15;;;38.30;28.20;;;;;;5116289;28;20265;-76
2023/08/20 10:16:04;;;;;;;2.25;1.40;;;38.70;28.30;;;;;;5115758;28;20166;-76
2023/08/20 10:18:30;;;;;;;2.03;1.65;;;38.60;27.90;;;;;;5115371;28;20218;-77
2023/08/20 10:20:59;;;;;;;2.95;1.25;;;38.60;27.70;;;;;;5115913;28;20288;-76
2023/08/20 10:23:24;;;;;;;2.88;1.05;;;38.60;28.20;;;;;;5115718;28;20166;-77
2023/08/20 10:25:52;;;;;;;1.90;1.35;;;39.30;27.90;;;;;;5114867;28;20181;-77
2023/08/20 10:28:24;;;;;;;1.85;1.65;;;39.00;27.60;;;;;;5114890;27;20629;-77
2023/08/20 10:31:07;;;;;;;1.48;1.27;;;38.50;27.80;;;;;;5115856;27;20198;-76
2023/08/20 10:33:35;;;;;;;1.48;1.30;;;38.20;28.30;;;;;;5115864;28;20660;-77
2023/08/20 10:36:09;;;;;;;2.10;1.50;;;38.10;28.60;;;;;;5114859;28;20296;-76
2023/08/20 10:38:38;;;;;;;1.98;1.45;;;37.80;29.30;;;;;;5115059;28;20656;-76
2023/08/20 10:41:07;;;;;;;2.88;1.42;;;37.00;29.20;;;;;;5115512;28;20208;-75
2023/08/20 10:43:40;;;;;;;2.30;1.45;;;36.40;30.10;;;;;;5115542;28;20291;-75
2023/08/20 10:46:16;;;;;;;2.15;1.13;;;34.60;30.90;;;;;;5115120;28;20170;-75
2023/08/20 10:49:09;;;;;;;2.00;1.08;;;34.00;32.40;;;;;;5115082;28;20195;-74
2023/08/20 10:51:40;;;;;;;3.92;1.30;;;34.40;32.60;;;;;;5111351;28;20206;-76
2023/08/20 10:54:06;;;;;;;2.35;1.30;;;35.90;31.90;;;;;;5114713;28;20253;-76
2023/08/20 10:56:49;;;;;;;3.03;1.33;;;36.20;30.90;;;;;;5114945;28;20552;-75
2023/08/20 10:59:17;;;;;;;1.40;1.20;;;35.90;31.50;;;;;;5115472;28;20178;-74
2023/08/20 11:01:47;;;;;;;1.30;1.17;;;34.40;32.70;;;;;;5115172;28;20610;-74
2023/08/20 11:04:17;;;;;;;2.72;1.27;;;33.10;34.70;;;;;;5114920;28;20198;-75
2023/08/20 11:06:44;;;;;;;2.92;1.65;;;34.10;34.60;;;;;;5114442;28;20288;-74
2023/08/20 11:09:10;;;;;;;1.83;1.30;;;34.40;33.60;;;;;;5114784;28;20629;-74
2023/08/20 11:11:39;;;;;;;1.60;1.50;;;33.50;34.40;;;;;;5113385;28;20592;-75
2023/08/20 11:14:07;;;;;;;1.98;1.65;;;34.10;34.80;;;;;;5115022;28;20163;-75
2023/08/20 11:16:34;;;;;;;2.97;1.45;;;34.50;34.50;;;;;;5114536;28;20175;-75
2023/08/20 11:18:59;;;;;;;1.67;1.25;;;34.00;34.80;;;;;;5114019;28;20222;-74
2023/08/20 11:21:25;;;;;;;2.63;1.42;;;32.40;37.30;;;;;;5114205;28;20167;-74
2023/08/20 11:23:51;;;;;;;4.55;1.40;;;33.40;37.90;;;;;;5114292;28;20234;-75
2023/08/20 11:26:17;;;;;;;1.77;1.05;;;33.70;36.80;;;;;;5114461;28;20183;-75
2023/08/20 11:28:46;;;;;;;1.85;1.20;;;33.80;36.30;;;;;;5114499;28;20601;-74
2023/08/20 11:31:12;;;;;;;2.95;1.30;;;33.80;36.30;;;;;;5114226;28;20178;-74
2023/08/20 11:33:38;;;;;;;2.08;1.17;;;33.30;37.10;;;;;;5113970;28;20171;-75
2023/08/20 11:36:05;;;;;;;1.17;1.10;;;34.20;36.40;;;;;;5113924;28;20167;-75
2023/08/20 11:38:31;;;;;;;2.97;1.40;;;34.80;35.50;;;;;;5114372;28;20221;-75
2023/08/20 11:41:00;;;;;;;1.50;1.15;;;34.90;34.70;;;;;;5114108;28;20537;-75
2023/08/20 11:43:29;;;;;;;2.50;1.60;;;35.50;34.50;;;;;;5114308;28;20301;-75
2023/08/20 11:45:55;;;;;;;2.00;1.40;;;35.00;33.70;;;;;;5113936;28;20178;-74
2023/08/20 11:48:21;;;;;;;2.38;1.25;;;33.40;35.40;;;;;;5113046;28;20231;-75
2023/08/20 11:50:47;;;;;;;3.70;1.33;;;33.00;37.60;;;;;;5113856;28;20179;-75
2023/08/20 11:53:13;;;;;;;1.58;1.13;;;33.60;37.20;;;;;;5113915;28;20239;-76
2023/08/20 11:55:42;;;;;;;1.65;1.38;;;34.30;36.30;;;;;;5114105;28;20686;-74
2023/08/20 11:58:14;;;;;;;2.17;1.60;;;34.90;35.60;;;;;;5113734;28;20250;-75
2023/08/20 12:00:40;;;;;;;2.35;1.40;;;34.20;36.20;;;;;;5113863;28;20171;-74
2023/08/20 12:03:07;;;;;;;2.63;1.52;;;34.10;37.10;;;;;;5114023;28;20171;-75
2023/08/20 12:05:33;;;;;;;2.80;1.80;;;33.80;37.20;;;;;;5111967;28;20574;-74
2023/08/20 12:08:01;;;;;;;1.90;1.60;;;31.30;40.60;;;;;;5113693;28;20174;-74
2023/08/20 12:10:28;;;;;;;3.17;1.30;;;30.80;44.20;;;;;;5113715;28;20703;-74
2023/08/20 12:12:56;;;;;;;2.80;1.38;;;30.60;44.60;;;;;;5113419;28;20175;-74
2023/08/20 12:15:22;;;;;;;2.85;2.65;;;30.70;45.00;;;;;;5113262;28;20174;-73
2023/08/20 12:18:05;;;;;;;2.63;1.30;;;30.40;46.90;;;;;;5113333;28;20276;-74
2023/08/20 12:20:33;;;;;;;2.03;1.42;;;30.00;47.40;;;;;;5113165;28;20179;-73
2023/08/20 12:23:04;;;;;;;2.85;1.20;;;29.80;49.70;;;;;;5113720;28;20163;-73
2023/08/20 12:25:32;;;;;;;2.35;1.33;;;30.20;49.70;;;;;;5113624;28;20214;-73
2023/08/20 12:27:58;;;;;;;3.00;2.03;;;30.30;49.70;;;;;;5113064;28;20174;-73
2023/08/20 12:30:23;;;;;;;2.85;1.38;;;29.70;52.40;;;;;;5113366;28;20175;-73
2023/08/20 12:32:49;;;;;;;4.32;1.60;;;29.40;53.90;;;;;;5113460;28;20163;-74
2023/08/20 12:35:14;;;;;;;3.33;2.10;;;29.50;54.30;;;;;;5113242;28;20167;-73
2023/08/20 12:37:40;;;;;;;2.97;2.00;;;29.60;54.50;;;;;;5112997;28;20167;-74
2023/08/20 12:40:11;;;;;;;3.20;1.80;;;30.00;54.40;;;;;;5113223;28;20722;-73
2023/08/20 12:42:38;;;;;;;2.33;1.40;;;29.80;54.30;;;;;;5113527;28;20159;-73